createdAt,value
2019-03-13T00:01:01.805Z,10.09
2019-03-13T00:03:30.203Z,9.99
2019-03-13T00:05:58.601Z,9.99
2019-03-13T00:08:27.049Z,9.87
2019-03-13T00:10:55.592Z,9.77
2019-03-13T00:13:24.046Z,9.69
2019-03-13T00:15:52.577Z,9.56
2019-03-13T00:18:21.027Z,9.49
2019-03-13T00:20:49.425Z,9.41
2019-03-13T00:23:17.833Z,9.40
2019-03-13T00:25:46.323Z,9.26
2019-03-13T00:28:14.702Z,9.16
2019-03-13T00:30:43.226Z,9.10
2019-03-13T00:33:11.565Z,9.04
2019-03-13T00:35:39.975Z,8.95
2019-03-13T00:38:08.374Z,8.87
2019-03-13T00:40:36.787Z,8.77
2019-03-13T00:43:05.171Z,8.62
2019-03-13T00:45:33.574Z,8.49
2019-03-13T00:48:01.968Z,8.51
2019-03-13T00:50:34.538Z,8.44
2019-03-13T00:53:02.977Z,8.38
2019-03-13T00:55:31.577Z,8.34
2019-03-13T00:57:59.993Z,8.31
2019-03-13T01:00:35.471Z,8.23
2019-03-13T01:03:04.852Z,8.25
2019-03-13T01:05:34.872Z,8.16
2019-03-13T01:08:03.258Z,7.98
2019-03-13T01:10:31.641Z,7.88
2019-03-13T01:13:00.034Z,7.77
2019-03-13T01:15:29.956Z,7.69
2019-03-13T01:17:58.410Z,7.63
2019-03-13T01:20:26.859Z,7.60
2019-03-13T01:22:55.275Z,7.55
2019-03-13T01:25:23.673Z,7.48
2019-03-13T01:27:52.071Z,7.48
2019-03-13T01:30:20.510Z,7.43
2019-03-13T01:32:50.654Z,7.42
2019-03-13T01:35:23.512Z,7.24
2019-03-13T01:37:52.039Z,7.08
2019-03-13T01:40:20.442Z,6.99
2019-03-13T01:42:48.851Z,6.93
2019-03-13T01:45:17.573Z,6.91
2019-03-13T01:47:46.001Z,6.88
2019-03-13T01:50:14.718Z,6.85
2019-03-13T01:52:43.106Z,6.82
2019-03-13T01:55:11.570Z,6.76
2019-03-13T01:57:39.965Z,6.76
2019-03-13T02:00:11.381Z,6.75
2019-03-13T02:02:39.843Z,6.76
2019-03-13T02:05:08.355Z,6.79
2019-03-13T02:07:36.757Z,6.79
2019-03-13T02:10:08.183Z,6.79
2019-03-13T02:12:36.578Z,6.79
2019-03-13T02:15:07.960Z,6.77
2019-03-13T02:17:36.351Z,6.72
2019-03-13T02:20:06.488Z,6.67
2019-03-13T02:22:34.878Z,6.63
2019-03-13T02:25:03.857Z,6.59
2019-03-13T02:27:32.247Z,6.54
2019-03-13T02:30:00.958Z,6.48
2019-03-13T02:32:30.922Z,6.47
2019-03-13T02:34:59.485Z,6.45
2019-03-13T02:37:27.872Z,6.44
2019-03-13T02:39:56.277Z,6.46
2019-03-13T02:42:24.669Z,6.43
2019-03-13T02:44:53.072Z,6.40
2019-03-13T02:47:21.485Z,6.38
2019-03-13T02:49:49.867Z,6.38
2019-03-13T02:52:18.254Z,6.39
2019-03-13T02:54:46.709Z,6.37
2019-03-13T02:57:15.116Z,6.41
2019-03-13T02:59:43.568Z,6.40
2019-03-13T03:02:13.586Z,6.40
2019-03-13T03:04:41.987Z,6.40
2019-03-13T03:07:12.901Z,6.43
2019-03-13T03:09:40.521Z,6.41
2019-03-13T03:12:08.912Z,6.44
2019-03-13T03:14:37.322Z,6.43
2019-03-13T03:17:05.710Z,6.47
2019-03-13T03:19:34.096Z,6.45
2019-03-13T03:22:02.489Z,6.46
2019-03-13T03:24:30.896Z,6.40
2019-03-13T03:26:59.291Z,6.38
2019-03-13T03:29:27.683Z,6.37
2019-03-13T03:31:56.094Z,6.36
2019-03-13T03:34:24.488Z,6.35
2019-03-13T03:36:52.877Z,6.27
2019-03-13T03:39:21.260Z,6.27
2019-03-13T03:41:49.652Z,6.24
2019-03-13T03:44:18.061Z,6.24
2019-03-13T03:46:46.605Z,6.20
2019-03-13T03:49:14.994Z,6.17
2019-03-13T03:51:43.391Z,6.13
2019-03-13T03:54:11.773Z,6.15
2019-03-13T03:56:40.197Z,6.11
2019-03-13T03:59:08.579Z,6.07
2019-03-13T04:01:36.988Z,6.07
2019-03-13T04:04:05.381Z,6.08
2019-03-13T04:06:33.978Z,6.01
2019-03-13T04:09:02.816Z,4.80
2019-03-13T04:11:31.206Z,6.04
2019-03-13T04:13:59.682Z,6.05
2019-03-13T04:16:28.061Z,6.03
2019-03-13T04:18:56.483Z,6.06
2019-03-13T04:21:24.956Z,6.05
2019-03-13T04:23:53.593Z,6.04
2019-03-13T04:28:34.609Z,6.08
2019-03-13T04:31:03.067Z,5.92
2019-03-13T04:33:31.473Z,5.86
2019-03-13T04:35:59.848Z,5.83
2019-03-13T04:38:28.247Z,5.79
2019-03-13T04:40:56.720Z,5.79
2019-03-13T04:43:25.135Z,5.82
2019-03-13T04:45:53.511Z,5.79
2019-03-13T04:48:21.913Z,5.83
2019-03-13T04:50:50.297Z,5.83
2019-03-13T04:53:18.695Z,5.86
2019-03-13T04:55:47.171Z,5.86
2019-03-13T04:58:15.573Z,5.85
2019-03-13T05:00:44.036Z,5.87
2019-03-13T05:03:12.429Z,5.87
2019-03-13T05:05:45.150Z,5.85
2019-03-13T05:08:29.255Z,5.84
2019-03-13T05:10:57.648Z,5.77
2019-03-13T05:13:26.066Z,5.73
2019-03-13T05:15:54.455Z,5.74
2019-03-13T05:18:22.896Z,5.67
2019-03-13T05:20:51.280Z,5.64
2019-03-13T05:23:19.664Z,5.65
2019-03-13T05:25:48.070Z,5.69
2019-03-13T05:28:16.481Z,5.74
2019-03-13T05:30:44.874Z,5.73
2019-03-13T05:33:13.281Z,5.78
2019-03-13T05:35:41.670Z,5.81
2019-03-13T05:38:10.072Z,5.81
2019-03-13T05:40:38.456Z,5.83
2019-03-13T05:43:06.850Z,5.86
2019-03-13T05:45:35.242Z,5.91
2019-03-13T05:48:03.626Z,5.92
2019-03-13T05:50:32.051Z,5.95
2019-03-13T05:53:00.446Z,5.98
2019-03-13T05:55:28.863Z,5.99
2019-03-13T05:57:57.253Z,6.01
2019-03-13T06:00:27.436Z,6.02
2019-03-13T06:02:55.836Z,6.00
2019-03-13T06:05:24.224Z,6.02
2019-03-13T06:07:52.621Z,6.07
2019-03-13T06:10:21.088Z,6.09
2019-03-13T06:12:49.490Z,6.10
2019-03-13T06:15:18.033Z,6.09
2019-03-13T06:17:46.424Z,6.09
2019-03-13T06:20:16.438Z,6.16
2019-03-13T06:22:45.042Z,6.13
2019-03-13T06:25:14.047Z,6.13
2019-03-13T06:27:42.434Z,6.16
2019-03-13T06:30:13.872Z,6.19
2019-03-13T06:32:42.278Z,6.26
2019-03-13T06:35:11.097Z,6.01
2019-03-13T06:37:39.493Z,6.32
2019-03-13T06:40:10.982Z,6.34
2019-03-13T06:42:40.068Z,6.35
2019-03-13T06:45:11.421Z,6.38
2019-03-13T06:47:39.802Z,6.43
2019-03-13T06:50:11.573Z,6.17
2019-03-13T06:52:39.981Z,6.31
2019-03-13T06:55:08.714Z,6.27
2019-03-13T06:57:37.162Z,6.26
2019-03-13T07:00:10.234Z,6.22
2019-03-13T07:02:56.117Z,6.26
2019-03-13T07:05:44.552Z,6.24
2019-03-13T07:08:29.944Z,6.35
2019-03-13T07:11:08.597Z,6.50
2019-03-13T07:13:47.365Z,6.59
2019-03-13T07:16:19.984Z,6.47
2019-03-13T07:18:50.043Z,6.35
2019-03-13T07:21:23.626Z,6.55
2019-03-13T07:24:08.912Z,6.89
2019-03-13T07:26:44.932Z,6.75
2019-03-13T07:29:14.980Z,6.58
2019-03-13T07:31:51.034Z,6.64
2019-03-13T07:34:21.069Z,6.22
2019-03-13T07:36:53.903Z,6.35
2019-03-13T07:39:27.091Z,6.53
2019-03-13T07:41:59.862Z,6.03
2019-03-13T07:44:39.758Z,5.71
2019-03-13T07:47:15.316Z,6.28
2019-03-13T07:49:54.649Z,6.20
2019-03-13T07:52:41.237Z,6.06
2019-03-13T07:55:17.522Z,6.40
2019-03-13T07:57:50.008Z,7.08
2019-03-13T08:00:22.549Z,7.89
2019-03-13T08:02:52.583Z,8.06
2019-03-13T08:05:25.312Z,9.24
2019-03-13T08:07:57.762Z,10.65
2019-03-13T08:10:27.897Z,11.07
2019-03-13T08:13:03.870Z,9.69
2019-03-13T08:15:36.847Z,8.96
2019-03-13T08:18:22.897Z,9.99
2019-03-13T08:20:52.957Z,11.23
2019-03-13T08:23:25.941Z,11.81
2019-03-13T08:26:08.269Z,11.83
2019-03-13T08:28:39.845Z,12.52
2019-03-13T08:31:12.810Z,12.89
2019-03-13T08:33:50.203Z,12.64
2019-03-13T08:36:29.039Z,12.81
2019-03-13T08:39:07.829Z,12.93
2019-03-13T08:41:37.887Z,13.46
2019-03-13T08:44:13.674Z,13.65
2019-03-13T08:47:00.180Z,14.31
2019-03-13T08:49:35.861Z,14.25
2019-03-13T08:52:11.921Z,14.84
2019-03-13T08:54:54.136Z,15.18
2019-03-13T08:57:24.191Z,15.82
2019-03-13T09:00:10.690Z,16.06
2019-03-13T09:02:40.768Z,14.95
2019-03-13T09:05:27.133Z,13.30
2019-03-13T09:08:06.380Z,14.29
2019-03-13T09:10:36.448Z,14.29
2019-03-13T09:13:18.483Z,13.50
2019-03-13T09:15:54.718Z,13.60
2019-03-13T09:18:30.565Z,12.84
2019-03-13T09:21:03.455Z,13.63
2019-03-13T09:23:39.244Z,13.40
2019-03-13T09:26:27.389Z,10.83
2019-03-13T09:28:57.447Z,11.26
2019-03-13T09:31:33.166Z,12.77
2019-03-13T09:34:03.220Z,13.97
2019-03-13T09:36:48.315Z,14.66
2019-03-13T09:39:20.835Z,15.07
2019-03-13T09:42:09.133Z,15.57
2019-03-13T09:44:39.176Z,15.48
2019-03-13T09:47:09.205Z,15.25
2019-03-13T09:49:45.196Z,15.52
2019-03-13T09:52:21.270Z,15.14
2019-03-13T09:54:56.939Z,15.00
2019-03-13T09:57:42.558Z,14.86
2019-03-13T10:00:33.306Z,14.52
2019-03-13T10:03:05.886Z,14.68
2019-03-13T10:05:38.821Z,15.58
2019-03-13T10:08:14.683Z,15.86
2019-03-13T10:11:01.117Z,14.83
2019-03-13T10:13:37.258Z,12.81
2019-03-13T10:16:10.260Z,11.38
2019-03-13T10:18:56.191Z,10.60
2019-03-13T10:21:28.702Z,9.95
2019-03-13T10:24:10.750Z,9.58
2019-03-13T10:26:40.800Z,9.30
2019-03-13T10:29:10.845Z,8.94
2019-03-13T10:31:49.935Z,9.04
2019-03-13T10:34:26.002Z,9.13
2019-03-13T10:36:56.051Z,9.18
2019-03-13T10:39:28.849Z,9.16
2019-03-13T10:42:17.693Z,9.10
2019-03-13T10:44:50.696Z,8.84
2019-03-13T10:47:35.824Z,9.08
2019-03-13T10:50:13.911Z,11.24
2019-03-13T10:52:43.935Z,14.44
2019-03-13T10:55:13.960Z,15.78
2019-03-13T10:57:46.763Z,16.58
2019-03-13T11:00:17.652Z,16.61
2019-03-13T11:02:54.095Z,14.40
2019-03-13T11:05:36.139Z,12.61
2019-03-13T11:08:18.579Z,12.39
2019-03-13T11:11:03.851Z,11.48
2019-03-13T11:13:36.748Z,10.63
2019-03-13T11:16:15.777Z,10.33
2019-03-13T11:18:57.627Z,9.93
2019-03-13T11:21:33.706Z,9.66
2019-03-13T11:24:03.758Z,9.46
2019-03-13T11:26:49.377Z,9.11
2019-03-13T11:29:19.424Z,8.96
2019-03-13T11:31:49.451Z,9.03
2019-03-13T11:34:34.902Z,9.21
2019-03-13T11:37:10.728Z,9.52
2019-03-13T11:39:43.469Z,8.81
2019-03-13T11:42:15.925Z,6.96
2019-03-13T11:58:41.497Z,15.62
2019-03-13T12:01:17.538Z,14.84
2019-03-13T12:03:47.617Z,14.71
2019-03-13T12:06:34.326Z,15.20
2019-03-13T12:09:31.407Z,15.19
2019-03-13T12:12:04.235Z,16.99
2019-03-13T12:45:13.752Z,13.63
2019-03-13T12:47:53.537Z,13.06
2019-03-13T12:50:23.677Z,12.61
2019-03-13T12:52:59.788Z,12.29
2019-03-13T12:55:55.536Z,10.62
2019-03-13T12:58:25.555Z,10.19
2019-03-13T13:00:58.615Z,10.31
2019-03-13T13:03:28.650Z,10.68
2019-03-13T13:06:15.159Z,11.26
2019-03-13T13:08:45.196Z,11.46
2019-03-13T13:11:15.261Z,11.41
2019-03-13T13:13:54.317Z,11.13
2019-03-13T13:16:24.390Z,11.04
2019-03-13T13:18:52.105Z,10.96
2019-03-13T13:21:20.583Z,10.61
2019-03-13T13:23:48.996Z,10.36
2019-03-13T13:26:17.451Z,10.59
2019-03-13T13:28:46.012Z,10.71
2019-03-13T13:31:14.505Z,10.62
2019-03-13T13:33:42.897Z,10.60
2019-03-13T13:36:11.369Z,11.13
2019-03-13T13:38:39.758Z,11.79
2019-03-13T13:41:08.214Z,11.63
2019-03-13T13:43:36.616Z,11.24
2019-03-13T13:46:11.349Z,10.93
2019-03-13T13:48:39.792Z,10.71
2019-03-13T13:51:08.188Z,10.36
2019-03-13T13:53:36.643Z,10.23
2019-03-13T13:56:05.193Z,10.08
2019-03-13T13:58:33.598Z,9.85
2019-03-13T14:01:02.011Z,9.75
2019-03-13T14:03:30.452Z,9.58
2019-03-13T14:05:58.862Z,9.52
2019-03-13T14:08:27.263Z,9.39
2019-03-13T14:10:55.675Z,9.60
2019-03-13T14:13:24.053Z,9.60
2019-03-13T14:15:52.516Z,9.56
2019-03-13T14:18:20.867Z,9.62
2019-03-13T14:20:49.353Z,9.56
2019-03-13T14:23:17.795Z,9.46
2019-03-13T14:25:46.196Z,9.44
2019-03-13T14:28:14.600Z,9.29
2019-03-13T14:30:43.216Z,9.16
2019-03-13T14:33:11.626Z,9.05
2019-03-13T14:35:40.039Z,8.93
2019-03-13T14:38:08.437Z,8.99
2019-03-13T14:40:36.875Z,9.11
2019-03-13T14:43:05.260Z,9.08
2019-03-13T14:45:33.736Z,9.11
2019-03-13T14:48:02.218Z,9.11
2019-03-13T14:50:30.652Z,9.12
2019-03-13T14:52:59.061Z,9.05
2019-03-13T14:55:27.449Z,9.00
2019-03-13T14:57:55.849Z,8.84
2019-03-13T15:00:27.606Z,8.69
2019-03-13T15:02:56.015Z,8.67
2019-03-13T15:05:24.464Z,8.71
2019-03-13T15:07:52.956Z,8.75
2019-03-13T15:10:22.206Z,8.71
2019-03-13T15:12:50.750Z,8.72
2019-03-13T15:15:21.456Z,8.73
2019-03-13T15:17:53.012Z,8.58
2019-03-13T15:20:27.950Z,8.58
2019-03-13T15:22:56.504Z,8.58
2019-03-13T15:25:24.916Z,8.53
2019-03-13T15:27:53.436Z,8.49
2019-03-13T15:30:24.071Z,8.53
2019-03-13T15:32:52.548Z,8.46
2019-03-13T15:35:20.963Z,8.48
2019-03-13T15:37:49.376Z,8.47
2019-03-13T15:40:18.728Z,8.50
2019-03-13T15:42:47.495Z,8.52
2019-03-13T15:45:21.846Z,8.52
2019-03-13T15:47:50.403Z,8.47
2019-03-13T15:50:18.972Z,8.42
2019-03-13T15:52:47.415Z,8.45
2019-03-13T15:55:17.049Z,8.37
2019-03-13T15:57:45.496Z,8.47
2019-03-13T16:00:19.518Z,8.48
2019-03-13T16:02:47.949Z,8.51
2019-03-13T16:05:16.498Z,8.57
2019-03-13T16:07:44.889Z,8.55
2019-03-13T16:10:15.057Z,8.53
2019-03-13T16:12:43.578Z,8.48
2019-03-13T16:15:27.116Z,8.48
2019-03-13T16:17:55.657Z,8.52
2019-03-13T16:20:24.061Z,8.49
2019-03-13T16:22:59.551Z,8.51
2019-03-13T16:25:28.147Z,8.55
2019-03-13T16:27:56.558Z,8.55
2019-03-13T16:30:27.751Z,8.59
2019-03-13T16:32:56.214Z,8.56
2019-03-13T16:35:26.513Z,8.53
2019-03-13T16:37:54.916Z,8.54
2019-03-13T16:40:23.571Z,8.55
2019-03-13T16:42:51.976Z,8.55
2019-03-13T16:45:22.095Z,8.56
2019-03-13T16:47:50.597Z,8.53
2019-03-13T16:50:21.624Z,8.45
2019-03-13T16:52:50.192Z,8.43
2019-03-13T16:55:20.136Z,8.38
2019-03-13T16:57:48.791Z,8.33
2019-03-13T17:00:25.767Z,8.29
2019-03-13T17:02:54.268Z,8.23
2019-03-13T17:05:22.701Z,8.20
2019-03-13T17:07:51.257Z,8.17
2019-03-13T17:10:24.453Z,8.16
2019-03-13T17:12:53.002Z,8.16
2019-03-13T17:15:23.497Z,8.17
2019-03-13T17:17:52.367Z,8.21
2019-03-13T17:20:33.426Z,8.18
2019-03-13T17:23:01.903Z,8.15
2019-03-13T17:25:30.404Z,8.13
2019-03-13T17:27:58.809Z,8.13
2019-03-13T17:30:31.319Z,8.10
2019-03-13T17:33:00.388Z,8.05
2019-03-13T17:35:28.948Z,8.04
2019-03-13T17:37:57.467Z,8.05
2019-03-13T17:40:30.113Z,8.00
2019-03-13T17:42:58.591Z,8.00
2019-03-13T17:45:27.079Z,7.95
2019-03-13T17:47:55.715Z,7.99
2019-03-13T17:50:27.296Z,7.96
2019-03-13T17:52:55.787Z,7.91
2019-03-13T17:55:25.031Z,7.87
2019-03-13T17:57:53.595Z,7.78
2019-03-13T18:00:55.531Z,7.66
2019-03-13T18:03:24.778Z,7.51
2019-03-13T18:05:53.244Z,7.29
2019-03-13T18:08:22.947Z,7.18
2019-03-13T18:10:51.508Z,7.13
2019-03-13T18:13:19.927Z,6.95
2019-03-13T18:15:48.376Z,6.85
2019-03-13T18:18:16.924Z,6.78
2019-03-13T18:20:45.456Z,6.65
2019-03-13T18:23:14.165Z,6.38
2019-03-13T18:25:42.685Z,6.16
2019-03-13T18:28:11.183Z,5.86
2019-03-13T18:30:39.767Z,5.73
2019-03-13T18:33:08.362Z,5.61
2019-03-13T18:35:36.987Z,5.56
2019-03-13T18:38:05.564Z,5.46
2019-03-13T18:40:34.154Z,5.50
2019-03-13T18:43:02.703Z,5.51
2019-03-13T18:45:35.408Z,5.51
2019-03-13T18:48:03.896Z,5.47
2019-03-13T18:50:32.639Z,5.44
2019-03-13T18:53:01.183Z,5.44
2019-03-13T18:55:31.644Z,5.45
2019-03-13T18:58:00.189Z,5.39
2019-03-13T19:00:33.957Z,5.38
2019-03-13T19:03:02.801Z,5.41
2019-03-13T19:05:33.083Z,5.44
2019-03-13T19:08:01.654Z,5.49
2019-03-13T19:10:31.631Z,5.53
2019-03-13T19:13:00.202Z,5.56
2019-03-13T19:15:29.965Z,5.61
2019-03-13T19:18:00.784Z,5.62
2019-03-13T19:20:29.617Z,5.70
2019-03-13T19:22:58.275Z,5.81
2019-03-13T19:25:26.709Z,5.86
2019-03-13T19:27:55.250Z,5.86
2019-03-13T19:30:26.440Z,5.92
2019-03-13T19:32:55.112Z,5.93
2019-03-13T19:35:23.656Z,5.97
2019-03-13T19:37:52.227Z,5.98
2019-03-13T19:40:21.869Z,6.01
2019-03-13T19:42:50.303Z,6.06
2019-03-13T19:45:30.474Z,6.06
2019-03-13T19:48:01.399Z,6.04
2019-03-13T19:50:29.223Z,6.03
2019-03-13T19:52:57.742Z,5.96
2019-03-13T19:55:26.320Z,5.94
2019-03-13T19:57:56.539Z,5.95
2019-03-13T20:00:25.854Z,5.94
2019-03-13T20:03:02.356Z,5.94
2019-03-13T20:05:30.887Z,5.85
2019-03-13T20:07:59.453Z,5.76
2019-03-13T20:10:29.328Z,5.71
2019-03-13T20:12:57.847Z,5.70
2019-03-13T20:15:27.780Z,5.65
2019-03-13T20:17:56.368Z,5.62
2019-03-13T20:20:25.114Z,5.63
2019-03-13T20:23:07.445Z,5.63
2019-03-13T20:25:35.985Z,5.59
2019-03-13T20:28:04.527Z,5.65
2019-03-13T20:30:33.004Z,5.63
2019-03-13T20:33:01.580Z,5.70
2019-03-13T20:35:30.161Z,5.68
2019-03-13T20:37:58.558Z,5.64
2019-03-13T20:40:28.100Z,5.67
2019-03-13T20:42:56.566Z,5.71
2019-03-13T20:45:26.311Z,5.70
2019-03-13T20:47:55.069Z,5.79
2019-03-13T20:50:35.909Z,5.81
2019-03-13T20:52:54.223Z,5.84
2019-03-13T20:55:24.427Z,5.83
2019-03-13T20:57:52.953Z,5.81
2019-03-13T21:03:34.959Z,5.83
2019-03-13T21:06:03.427Z,5.75
2019-03-13T21:08:31.833Z,5.73
2019-03-13T21:11:00.247Z,5.71
2019-03-13T21:13:28.730Z,5.68
2019-03-13T21:15:57.215Z,5.68
2019-03-13T21:18:25.709Z,5.64
2019-03-13T21:20:54.199Z,5.56
2019-03-13T21:23:22.608Z,5.58
2019-03-13T21:25:51.036Z,5.59
2019-03-13T21:28:19.502Z,5.61
2019-03-13T21:30:47.957Z,5.64
2019-03-13T21:33:16.368Z,5.69
2019-03-13T21:35:44.784Z,5.64
2019-03-13T21:38:13.409Z,5.64
2019-03-13T21:40:41.897Z,5.61
2019-03-13T21:43:10.301Z,5.62
2019-03-13T21:45:41.353Z,5.58
2019-03-13T21:48:08.941Z,5.68
2019-03-13T21:50:37.337Z,5.71
2019-03-13T21:53:05.798Z,5.64
2019-03-13T21:55:34.236Z,5.68
2019-03-13T21:58:02.643Z,5.63
2019-03-13T22:00:31.266Z,5.67
2019-03-13T22:02:59.728Z,5.73
2019-03-13T22:05:28.133Z,5.78
2019-03-13T22:07:56.546Z,5.74
2019-03-13T22:10:24.930Z,5.72
2019-03-13T22:12:53.412Z,5.71
2019-03-13T22:15:23.108Z,5.74
2019-03-13T22:17:51.665Z,5.74
2019-03-13T22:20:20.891Z,5.75
2019-03-13T22:22:49.336Z,5.76
2019-03-13T22:25:18.972Z,5.78
2019-03-13T22:27:47.493Z,5.68
2019-03-13T22:30:23.527Z,5.66
2019-03-13T22:32:52.157Z,5.61
2019-03-13T22:35:20.731Z,5.59
2019-03-13T22:37:49.259Z,5.58
2019-03-13T22:40:18.275Z,5.57
2019-03-13T22:42:46.851Z,5.53
2019-03-13T22:45:17.253Z,5.51
2019-03-13T22:47:45.672Z,5.48
2019-03-13T22:50:16.017Z,5.51
2019-03-13T22:52:44.567Z,5.45
2019-03-13T22:55:13.511Z,5.41
2019-03-13T22:57:41.992Z,5.45
2019-03-13T23:00:16.189Z,5.48
2019-03-13T23:02:44.827Z,5.50
2019-03-13T23:05:13.507Z,5.53
2019-03-13T23:07:41.984Z,5.51
2019-03-13T23:10:33.476Z,5.52
2019-03-13T23:13:02.009Z,5.53
2019-03-13T23:15:30.493Z,5.58
2019-03-13T23:17:59.402Z,5.61
2019-03-13T23:20:28.039Z,5.65
2019-03-13T23:22:56.620Z,5.68
2019-03-13T23:25:25.103Z,5.66
2019-03-13T23:27:53.510Z,5.74
2019-03-13T23:30:21.952Z,5.73
2019-03-13T23:32:50.497Z,5.77
2019-03-13T23:35:19.382Z,5.78
2019-03-13T23:37:47.835Z,5.73
2019-03-13T23:40:16.428Z,5.73
2019-03-13T23:42:44.896Z,5.74
2019-03-13T23:45:15.262Z,5.73
2019-03-13T23:47:43.888Z,5.75
2019-03-13T23:50:13.625Z,5.78
2019-03-13T23:52:42.191Z,5.76
2019-03-13T23:55:10.883Z,5.74
2019-03-13T23:57:39.377Z,5.69
